sensor_id;sensor_type;location;lat;lon;timestamp;pressure;altitude;pressure_sealevel;temperature;humidity
40940;BME280;26666;50.156;7.700;2023-03-14T00:21:36;98422.38;;;10.51;100.00
40940;BME280;26666;50.156;7.700;2023-03-14T00:26:37;98410.06;;;10.58;100.00
40940;BME280;26666;50.156;7.700;2023-03-14T00:31:39;98403.63;;;10.61;100.00
40940;BME280;26666;50.156;7.700;2023-03-14T00:36:40;98395.31;;;10.49;100.00
40940;BME280;26666;50.156;7.700;2023-03-14T00:41:42;98378.88;;;10.39;100.00
40940;BME280;26666;50.156;7.700;2023-03-14T00:46:43;98371.16;;;10.37;100.00
40940;BME280;26666;50.156;7.700;2023-03-14T00:51:45;98376.25;;;10.39;100.00
40940;BME280;26666;50.156;7.700;2023-03-14T00:56:46;98362.31;;;10.30;100.00
40940;BME280;26666;50.156;7.700;2023-03-14T01:01:47;98352.69;;;10.29;100.00
40940;BME280;26666;50.156;7.700;2023-03-14T01:12:33;98339.72;;;10.27;100.00
40940;BME280;26666;50.156;7.700;2023-03-14T01:17:34;98339.41;;;10.22;100.00
40940;BME280;26666;50.156;7.700;2023-03-14T01:22:36;98331.31;;;10.24;100.00
40940;BME280;26666;50.156;7.700;2023-03-14T01:27:38;98328.69;;;10.24;100.00
40940;BME280;26666;50.156;7.700;2023-03-14T01:32:39;98337.41;;;10.24;100.00
40940;BME280;26666;50.156;7.700;2023-03-14T01:37:41;98315.97;;;10.04;100.00
40940;BME280;26666;50.156;7.700;2023-03-14T01:42:46;98295.69;;;10.05;100.00
40940;BME280;26666;50.156;7.700;2023-03-14T01:47:47;98304.00;;;10.17;100.00
40940;BME280;26666;50.156;7.700;2023-03-14T01:52:49;98316.84;;;10.20;100.00
40940;BME280;26666;50.156;7.700;2023-03-14T01:57:52;98286.78;;;10.21;100.00
40940;BME280;26666;50.156;7.700;2023-03-14T02:02:57;98282.16;;;10.23;100.00
40940;BME280;26666;50.156;7.700;2023-03-14T02:08:00;98276.63;;;10.18;100.00
40940;BME280;26666;50.156;7.700;2023-03-14T02:13:02;98255.22;;;10.13;100.00
40940;BME280;26666;50.156;7.700;2023-03-14T02:18:04;98265.13;;;10.11;100.00
40940;BME280;26666;50.156;7.700;2023-03-14T02:23:06;98262.28;;;9.97;100.00
40940;BME280;26666;50.156;7.700;2023-03-14T02:28:08;98261.94;;;10.00;100.00
40940;BME280;26666;50.156;7.700;2023-03-14T02:33:10;98229.69;;;9.90;100.00
40940;BME280;26666;50.156;7.700;2023-03-14T02:43:20;98242.56;;;10.08;100.00
40940;BME280;26666;50.156;7.700;2023-03-14T02:48:25;98243.97;;;9.96;100.00
40940;BME280;26666;50.156;7.700;2023-03-14T02:53:28;98224.56;;;9.74;100.00
40940;BME280;26666;50.156;7.700;2023-03-14T02:58:30;98232.41;;;9.82;100.00
40940;BME280;26666;50.156;7.700;2023-03-14T03:03:32;98234.22;;;9.81;100.00
40940;BME280;26666;50.156;7.700;2023-03-14T03:08:34;98241.88;;;9.91;100.00
40940;BME280;26666;50.156;7.700;2023-03-14T03:13:35;98235.13;;;9.74;100.00
40940;BME280;26666;50.156;7.700;2023-03-14T03:18:36;98235.66;;;9.69;100.00
40940;BME280;26666;50.156;7.700;2023-03-14T03:23:38;98239.13;;;9.84;100.00
40940;BME280;26666;50.156;7.700;2023-03-14T03:28:39;98225.22;;;9.76;100.00
40940;BME280;26666;50.156;7.700;2023-03-14T03:33:40;98203.50;;;9.89;100.00
40940;BME280;26666;50.156;7.700;2023-03-14T03:38:42;98203.38;;;9.82;100.00
40940;BME280;26666;50.156;7.700;2023-03-14T03:43:43;98199.31;;;9.79;100.00
40940;BME280;26666;50.156;7.700;2023-03-14T03:48:44;98204.91;;;9.61;100.00
40940;BME280;26666;50.156;7.700;2023-03-14T03:53:46;98192.75;;;9.75;100.00
40940;BME280;26666;50.156;7.700;2023-03-14T03:58:47;98192.38;;;9.63;100.00
40940;BME280;26666;50.156;7.700;2023-03-14T04:03:49;98181.09;;;9.70;100.00
40940;BME280;26666;50.156;7.700;2023-03-14T04:08:50;98184.00;;;9.75;100.00
40940;BME280;26666;50.156;7.700;2023-03-14T04:13:52;98183.09;;;9.67;100.00
40940;BME280;26666;50.156;7.700;2023-03-14T04:18:53;98163.69;;;9.60;100.00
40940;BME280;26666;50.156;7.700;2023-03-14T04:23:55;98158.13;;;9.55;100.00
40940;BME280;26666;50.156;7.700;2023-03-14T04:28:56;98160.34;;;9.66;100.00
40940;BME280;26666;50.156;7.700;2023-03-14T04:33:57;98145.66;;;9.34;100.00
40940;BME280;26666;50.156;7.700;2023-03-14T04:38:59;98147.41;;;9.42;100.00
40940;BME280;26666;50.156;7.700;2023-03-14T04:44:00;98147.88;;;9.60;100.00
40940;BME280;26666;50.156;7.700;2023-03-14T04:49:01;98154.25;;;9.66;100.00
40940;BME280;26666;50.156;7.700;2023-03-14T04:54:03;98164.25;;;9.71;100.00
40940;BME280;26666;50.156;7.700;2023-03-14T04:59:04;98171.69;;;9.52;100.00
40940;BME280;26666;50.156;7.700;2023-03-14T05:04:06;98187.00;;;9.72;100.00
40940;BME280;26666;50.156;7.700;2023-03-14T05:09:07;98186.19;;;9.71;100.00
40940;BME280;26666;50.156;7.700;2023-03-14T05:14:09;98207.94;;;9.73;100.00
40940;BME280;26666;50.156;7.700;2023-03-14T05:19:10;98195.47;;;9.67;100.00
40940;BME280;26666;50.156;7.700;2023-03-14T05:24:12;98193.16;;;9.64;100.00
40940;BME280;26666;50.156;7.700;2023-03-14T05:29:13;98184.63;;;9.62;100.00
40940;BME280;26666;50.156;7.700;2023-03-14T05:34:15;98173.31;;;9.53;100.00
40940;BME280;26666;50.156;7.700;2023-03-14T05:39:16;98161.69;;;9.24;100.00
40940;BME280;26666;50.156;7.700;2023-03-14T05:44:18;98156.44;;;9.24;100.00
40940;BME280;26666;50.156;7.700;2023-03-14T05:49:19;98152.44;;;9.05;100.00
40940;BME280;26666;50.156;7.700;2023-03-14T05:54:20;98151.56;;;8.90;100.00
40940;BME280;26666;50.156;7.700;2023-03-14T05:59:22;98156.78;;;8.67;100.00
40940;BME280;26666;50.156;7.700;2023-03-14T06:04:24;98139.66;;;8.71;100.00
40940;BME280;26666;50.156;7.700;2023-03-14T06:09:25;98140.00;;;8.68;100.00
40940;BME280;26666;50.156;7.700;2023-03-14T06:14:26;98146.56;;;8.72;100.00
40940;BME280;26666;50.156;7.700;2023-03-14T06:19:28;98136.00;;;9.03;100.00
40940;BME280;26666;50.156;7.700;2023-03-14T06:24:29;98133.88;;;8.99;100.00
40940;BME280;26666;50.156;7.700;2023-03-14T06:29:31;98143.50;;;9.53;100.00
40940;BME280;26666;50.156;7.700;2023-03-14T06:34:32;98145.66;;;9.49;100.00
40940;BME280;26666;50.156;7.700;2023-03-14T06:39:34;98134.16;;;9.65;100.00
40940;BME280;26666;50.156;7.700;2023-03-14T06:44:35;98144.00;;;9.71;100.00
40940;BME280;26666;50.156;7.700;2023-03-14T06:49:36;98134.19;;;9.80;100.00
40940;BME280;26666;50.156;7.700;2023-03-14T06:54:38;98139.53;;;9.72;100.00
40940;BME280;26666;50.156;7.700;2023-03-14T06:59:39;98132.91;;;9.76;100.00
40940;BME280;26666;50.156;7.700;2023-03-14T07:04:40;98149.28;;;9.86;100.00
40940;BME280;26666;50.156;7.700;2023-03-14T07:09:42;98144.66;;;10.03;100.00
40940;BME280;26666;50.156;7.700;2023-03-14T07:14:43;98142.31;;;10.08;100.00
40940;BME280;26666;50.156;7.700;2023-03-14T07:19:45;98156.84;;;10.49;100.00
40940;BME280;26666;50.156;7.700;2023-03-14T07:24:46;98150.22;;;11.11;100.00
40940;BME280;26666;50.156;7.700;2023-03-14T07:29:53;98140.41;;;11.82;100.00
40940;BME280;26666;50.156;7.700;2023-03-14T07:35:04;98154.41;;;11.70;100.00
40940;BME280;26666;50.156;7.700;2023-03-14T07:46:13;98160.34;;;11.78;100.00
40940;BME280;26666;50.156;7.700;2023-03-14T07:51:14;98160.97;;;11.52;100.00
40940;BME280;26666;50.156;7.700;2023-03-14T07:56:19;98154.00;;;11.44;100.00
40940;BME280;26666;50.156;7.700;2023-03-14T08:01:20;98153.84;;;11.53;100.00
40940;BME280;26666;50.156;7.700;2023-03-14T08:06:21;98151.97;;;11.47;100.00
40940;BME280;26666;50.156;7.700;2023-03-14T08:11:23;98148.88;;;11.43;100.00
40940;BME280;26666;50.156;7.700;2023-03-14T08:16:24;98150.19;;;11.32;100.00
40940;BME280;26666;50.156;7.700;2023-03-14T08:21:26;98147.38;;;10.91;100.00
40940;BME280;26666;50.156;7.700;2023-03-14T08:26:30;98149.75;;;10.85;100.00
40940;BME280;26666;50.156;7.700;2023-03-14T08:31:31;98151.28;;;10.95;100.00
40940;BME280;26666;50.156;7.700;2023-03-14T08:36:32;98152.72;;;10.97;100.00
40940;BME280;26666;50.156;7.700;2023-03-14T08:41:34;98147.44;;;11.40;100.00
40940;BME280;26666;50.156;7.700;2023-03-14T08:46:36;98157.47;;;11.52;100.00
40940;BME280;26666;50.156;7.700;2023-03-14T08:51:48;98151.75;;;11.70;100.00
40940;BME280;26666;50.156;7.700;2023-03-14T08:56:51;98158.56;;;11.86;100.00
40940;BME280;26666;50.156;7.700;2023-03-14T09:02:20;98167.13;;;11.88;100.00
40940;BME280;26666;50.156;7.700;2023-03-14T09:07:30;98164.66;;;11.86;100.00
40940;BME280;26666;50.156;7.700;2023-03-14T09:12:42;98163.38;;;11.97;100.00
40940;BME280;26666;50.156;7.700;2023-03-14T09:18:03;98164.47;;;11.88;100.00
40940;BME280;26666;50.156;7.700;2023-03-14T09:29:12;98173.78;;;11.55;100.00
40940;BME280;26666;50.156;7.700;2023-03-14T09:34:15;98185.50;;;11.68;100.00
40940;BME280;26666;50.156;7.700;2023-03-14T09:45:07;98183.09;;;11.73;100.00
40940;BME280;26666;50.156;7.700;2023-03-14T09:50:13;98182.94;;;11.81;100.00
40940;BME280;26666;50.156;7.700;2023-03-14T09:55:16;98183.50;;;11.70;100.00
40940;BME280;26666;50.156;7.700;2023-03-14T10:00:19;98188.16;;;11.89;100.00
40940;BME280;26666;50.156;7.700;2023-03-14T10:05:21;98192.75;;;12.09;100.00
40940;BME280;26666;50.156;7.700;2023-03-14T10:16:07;98200.00;;;11.72;100.00
40940;BME280;26666;50.156;7.700;2023-03-14T10:21:35;98195.38;;;11.80;100.00
40940;BME280;26666;50.156;7.700;2023-03-14T10:51:18;98230.97;;;11.99;100.00
40940;BME280;26666;50.156;7.700;2023-03-14T10:56:17;98241.16;;;11.81;100.00
40940;BME280;26666;50.156;7.700;2023-03-14T11:01:23;98266.63;;;11.82;100.00
40940;BME280;26666;50.156;7.700;2023-03-14T11:11:41;98348.97;;;11.57;100.00
40940;BME280;26666;50.156;7.700;2023-03-14T11:27:13;98475.50;;;10.71;100.00
40940;BME280;26666;50.156;7.700;2023-03-14T11:33:04;98515.91;;;10.57;100.00
40940;BME280;26666;50.156;7.700;2023-03-14T11:37:42;98525.81;;;10.55;100.00
40940;BME280;26666;50.156;7.700;2023-03-14T11:42:53;98562.78;;;10.55;100.00
40940;BME280;26666;50.156;7.700;2023-03-14T11:53:19;98573.38;;;10.46;100.00
40940;BME280;26666;50.156;7.700;2023-03-14T11:58:25;98579.97;;;10.74;100.00
40940;BME280;26666;50.156;7.700;2023-03-14T12:03:41;98590.13;;;10.85;100.00
40940;BME280;26666;50.156;7.700;2023-03-14T12:08:58;98603.28;;;10.93;97.82
40940;BME280;26666;50.156;7.700;2023-03-14T12:14:00;98594.03;;;11.35;96.99
40940;BME280;26666;50.156;7.700;2023-03-14T12:24:23;98623.75;;;11.37;93.58
40940;BME280;26666;50.156;7.700;2023-03-14T12:29:26;98653.09;;;11.04;96.68
40940;BME280;26666;50.156;7.700;2023-03-14T12:34:29;98681.78;;;10.53;100.00
40940;BME280;26666;50.156;7.700;2023-03-14T12:39:33;98709.06;;;10.45;100.00
40940;BME280;26666;50.156;7.700;2023-03-14T12:44:45;98715.72;;;10.33;100.00
40940;BME280;26666;50.156;7.700;2023-03-14T12:49:47;98724.91;;;10.29;100.00
40940;BME280;26666;50.156;7.700;2023-03-14T12:54:55;98741.03;;;10.59;100.00
40940;BME280;26666;50.156;7.700;2023-03-14T13:00:17;98754.50;;;10.08;100.00
40940;BME280;26666;50.156;7.700;2023-03-14T13:05:21;98773.44;;;10.12;100.00
40940;BME280;26666;50.156;7.700;2023-03-14T13:10:29;98773.16;;;9.98;100.00
40940;BME280;26666;50.156;7.700;2023-03-14T13:15:40;98779.06;;;10.00;100.00
40940;BME280;26666;50.156;7.700;2023-03-14T13:20:45;98810.03;;;10.23;100.00
40940;BME280;26666;50.156;7.700;2023-03-14T13:25:49;98833.31;;;10.60;100.00
40940;BME280;26666;50.156;7.700;2023-03-14T13:30:54;98839.88;;;10.73;100.00
40940;BME280;26666;50.156;7.700;2023-03-14T13:36:01;98865.19;;;10.51;95.56
40940;BME280;26666;50.156;7.700;2023-03-14T13:41:06;98873.41;;;10.56;92.83
40940;BME280;26666;50.156;7.700;2023-03-14T13:46:12;98895.69;;;10.61;89.96
40940;BME280;26666;50.156;7.700;2023-03-14T13:51:18;98924.59;;;10.38;89.90
40940;BME280;26666;50.156;7.700;2023-03-14T13:56:21;98936.28;;;10.27;85.91
40940;BME280;26666;50.156;7.700;2023-03-14T14:01:24;98941.75;;;10.34;89.26
40940;BME280;26666;50.156;7.700;2023-03-14T14:06:27;98951.34;;;10.35;86.45
40940;BME280;26666;50.156;7.700;2023-03-14T14:11:37;98961.91;;;10.35;84.38
40940;BME280;26666;50.156;7.700;2023-03-14T14:16:51;98991.81;;;10.10;92.91
40940;BME280;26666;50.156;7.700;2023-03-14T14:21:54;99005.97;;;9.92;84.62
40940;BME280;26666;50.156;7.700;2023-03-14T14:26:59;99022.97;;;9.98;82.85
40940;BME280;26666;50.156;7.700;2023-03-14T14:42:20;99066.09;;;9.46;89.59
40940;BME280;26666;50.156;7.700;2023-03-14T14:47:23;99085.28;;;9.30;91.48
40940;BME280;26666;50.156;7.700;2023-03-14T14:52:33;99105.16;;;9.24;95.39
40940;BME280;26666;50.156;7.700;2023-03-14T14:57:38;99119.94;;;8.99;100.00
40940;BME280;26666;50.156;7.700;2023-03-14T15:02:40;99138.59;;;8.70;100.00
40940;BME280;26666;50.156;7.700;2023-03-14T15:07:42;99149.63;;;8.28;100.00
40940;BME280;26666;50.156;7.700;2023-03-14T15:12:44;99156.31;;;7.75;100.00
40940;BME280;26666;50.156;7.700;2023-03-14T15:17:45;99167.94;;;7.82;100.00
40940;BME280;26666;50.156;7.700;2023-03-14T15:22:47;99187.19;;;7.63;100.00
40940;BME280;26666;50.156;7.700;2023-03-14T15:27:48;99214.75;;;7.40;100.00
40940;BME280;26666;50.156;7.700;2023-03-14T15:32:50;99227.91;;;7.30;100.00
40940;BME280;26666;50.156;7.700;2023-03-14T15:37:51;99223.19;;;7.14;100.00
40940;BME280;26666;50.156;7.700;2023-03-14T15:42:52;99224.16;;;7.42;100.00
40940;BME280;26666;50.156;7.700;2023-03-14T15:47:54;99259.44;;;7.30;100.00
40940;BME280;26666;50.156;7.700;2023-03-14T15:52:55;99275.75;;;7.24;100.00
40940;BME280;26666;50.156;7.700;2023-03-14T15:57:57;99303.22;;;7.10;100.00
40940;BME280;26666;50.156;7.700;2023-03-14T16:02:58;99305.84;;;7.20;100.00
40940;BME280;26666;50.156;7.700;2023-03-14T16:07:59;99318.03;;;7.21;100.00
40940;BME280;26666;50.156;7.700;2023-03-14T16:13:01;99325.66;;;7.14;100.00
40940;BME280;26666;50.156;7.700;2023-03-14T16:18:03;99334.47;;;7.13;100.00
40940;BME280;26666;50.156;7.700;2023-03-14T16:23:22;99341.91;;;7.08;100.00
40940;BME280;26666;50.156;7.700;2023-03-14T16:28:24;99361.63;;;6.93;100.00
40940;BME280;26666;50.156;7.700;2023-03-14T16:33:25;99365.84;;;7.05;100.00
40940;BME280;26666;50.156;7.700;2023-03-14T16:38:27;99392.47;;;7.00;100.00
40940;BME280;26666;50.156;7.700;2023-03-14T16:43:33;99402.63;;;7.05;100.00
40940;BME280;26666;50.156;7.700;2023-03-14T16:48:35;99425.00;;;6.78;100.00
40940;BME280;26666;50.156;7.700;2023-03-14T16:53:36;99440.97;;;6.44;100.00
40940;BME280;26666;50.156;7.700;2023-03-14T16:58:38;99443.63;;;6.33;100.00
40940;BME280;26666;50.156;7.700;2023-03-14T17:03:40;99467.81;;;5.93;100.00
40940;BME280;26666;50.156;7.700;2023-03-14T17:08:42;99486.72;;;5.64;100.00
40940;BME280;26666;50.156;7.700;2023-03-14T17:13:44;99510.66;;;5.60;100.00
40940;BME280;26666;50.156;7.700;2023-03-14T17:18:45;99518.41;;;5.27;100.00
40940;BME280;26666;50.156;7.700;2023-03-14T17:23:46;99530.66;;;5.38;100.00
40940;BME280;26666;50.156;7.700;2023-03-14T17:28:48;99526.84;;;5.42;100.00
40940;BME280;26666;50.156;7.700;2023-03-14T17:33:49;99541.50;;;5.33;100.00
40940;BME280;26666;50.156;7.700;2023-03-14T17:38:51;99551.97;;;5.33;100.00
40940;BME280;26666;50.156;7.700;2023-03-14T17:43:52;99554.22;;;5.27;100.00
40940;BME280;26666;50.156;7.700;2023-03-14T17:48:53;99559.31;;;5.17;100.00
40940;BME280;26666;50.156;7.700;2023-03-14T17:53:55;99575.06;;;5.28;100.00
40940;BME280;26666;50.156;7.700;2023-03-14T17:58:56;99583.22;;;5.01;100.00
40940;BME280;26666;50.156;7.700;2023-03-14T18:03:58;99602.72;;;4.97;100.00
40940;BME280;26666;50.156;7.700;2023-03-14T18:09:00;99607.16;;;5.08;100.00
40940;BME280;26666;50.156;7.700;2023-03-14T18:14:01;99621.59;;;5.25;100.00
40940;BME280;26666;50.156;7.700;2023-03-14T18:19:03;99628.88;;;5.32;100.00
40940;BME280;26666;50.156;7.700;2023-03-14T18:24:04;99633.28;;;5.32;100.00
40940;BME280;26666;50.156;7.700;2023-03-14T18:29:06;99655.16;;;5.66;100.00
40940;BME280;26666;50.156;7.700;2023-03-14T18:34:07;99668.44;;;5.41;100.00
40940;BME280;26666;50.156;7.700;2023-03-14T18:39:09;99689.22;;;5.55;100.00
40940;BME280;26666;50.156;7.700;2023-03-14T18:44:10;99687.22;;;5.34;100.00
40940;BME280;26666;50.156;7.700;2023-03-14T18:49:12;99697.19;;;5.53;100.00
40940;BME280;26666;50.156;7.700;2023-03-14T18:54:13;99700.75;;;5.52;100.00
40940;BME280;26666;50.156;7.700;2023-03-14T18:59:14;99714.41;;;5.33;100.00
40940;BME280;26666;50.156;7.700;2023-03-14T19:04:16;99737.50;;;5.40;100.00
40940;BME280;26666;50.156;7.700;2023-03-14T19:09:17;99749.97;;;5.60;100.00
40940;BME280;26666;50.156;7.700;2023-03-14T19:14:19;99754.84;;;5.53;100.00
40940;BME280;26666;50.156;7.700;2023-03-14T19:19:20;99765.69;;;5.60;100.00
40940;BME280;26666;50.156;7.700;2023-03-14T19:24:22;99766.53;;;5.61;100.00
40940;BME280;26666;50.156;7.700;2023-03-14T19:29:23;99771.78;;;5.61;100.00
40940;BME280;26666;50.156;7.700;2023-03-14T19:34:24;99780.22;;;5.53;100.00
40940;BME280;26666;50.156;7.700;2023-03-14T19:39:26;99783.00;;;5.39;100.00
40940;BME280;26666;50.156;7.700;2023-03-14T19:44:27;99782.88;;;5.40;100.00
40940;BME280;26666;50.156;7.700;2023-03-14T19:49:28;99789.88;;;4.91;100.00
40940;BME280;26666;50.156;7.700;2023-03-14T19:54:30;99795.25;;;5.14;100.00
40940;BME280;26666;50.156;7.700;2023-03-14T19:59:31;99806.94;;;5.21;100.00
40940;BME280;26666;50.156;7.700;2023-03-14T20:04:33;99827.50;;;5.27;100.00
40940;BME280;26666;50.156;7.700;2023-03-14T20:09:34;99835.63;;;5.36;100.00
40940;BME280;26666;50.156;7.700;2023-03-14T20:14:36;99847.38;;;5.30;100.00
40940;BME280;26666;50.156;7.700;2023-03-14T20:19:38;99855.06;;;5.20;100.00
40940;BME280;26666;50.156;7.700;2023-03-14T20:24:39;99865.09;;;5.26;100.00
40940;BME280;26666;50.156;7.700;2023-03-14T20:29:41;99872.78;;;5.41;100.00
40940;BME280;26666;50.156;7.700;2023-03-14T20:34:42;99886.06;;;5.26;100.00
40940;BME280;26666;50.156;7.700;2023-03-14T20:39:43;99896.19;;;5.31;100.00
40940;BME280;26666;50.156;7.700;2023-03-14T20:44:45;99898.72;;;5.32;100.00
40940;BME280;26666;50.156;7.700;2023-03-14T20:49:46;99906.56;;;5.32;100.00
40940;BME280;26666;50.156;7.700;2023-03-14T20:54:47;99912.44;;;5.23;100.00
40940;BME280;26666;50.156;7.700;2023-03-14T20:59:49;99918.47;;;5.12;100.00
40940;BME280;26666;50.156;7.700;2023-03-14T21:04:51;99934.81;;;5.16;100.00
40940;BME280;26666;50.156;7.700;2023-03-14T21:09:52;99934.56;;;5.19;100.00
40940;BME280;26666;50.156;7.700;2023-03-14T21:14:53;99946.94;;;5.17;100.00
40940;BME280;26666;50.156;7.700;2023-03-14T21:19:55;99949.88;;;5.25;100.00
40940;BME280;26666;50.156;7.700;2023-03-14T21:24:56;99952.81;;;5.21;100.00
40940;BME280;26666;50.156;7.700;2023-03-14T21:29:57;99954.38;;;4.98;100.00
40940;BME280;26666;50.156;7.700;2023-03-14T21:34:59;99963.00;;;4.87;100.00
40940;BME280;26666;50.156;7.700;2023-03-14T21:40:00;99980.16;;;4.91;100.00
40940;BME280;26666;50.156;7.700;2023-03-14T21:45:02;99984.44;;;4.92;100.00
40940;BME280;26666;50.156;7.700;2023-03-14T21:50:04;99991.13;;;4.70;100.00
40940;BME280;26666;50.156;7.700;2023-03-14T21:55:05;100003.75;;;4.38;100.00
40940;BME280;26666;50.156;7.700;2023-03-14T22:00:07;100009.22;;;4.21;100.00
40940;BME280;26666;50.156;7.700;2023-03-14T22:05:12;100015.59;;;4.17;100.00
40940;BME280;26666;50.156;7.700;2023-03-14T22:10:14;100026.06;;;4.02;100.00
40940;BME280;26666;50.156;7.700;2023-03-14T22:15:16;100029.38;;;3.91;100.00
40940;BME280;26666;50.156;7.700;2023-03-14T22:20:17;100045.38;;;3.72;100.00
40940;BME280;26666;50.156;7.700;2023-03-14T22:25:18;100056.28;;;3.65;100.00
40940;BME280;26666;50.156;7.700;2023-03-14T22:30:20;100080.19;;;3.59;100.00
40940;BME280;26666;50.156;7.700;2023-03-14T22:35:21;100088.56;;;3.49;100.00
40940;BME280;26666;50.156;7.700;2023-03-14T22:40:23;100089.97;;;3.41;100.00
40940;BME280;26666;50.156;7.700;2023-03-14T22:45:24;100092.75;;;3.38;100.00
40940;BME280;26666;50.156;7.700;2023-03-14T22:50:25;100117.09;;;3.38;100.00
40940;BME280;26666;50.156;7.700;2023-03-14T22:55:27;100124.19;;;3.36;100.00
40940;BME280;26666;50.156;7.700;2023-03-14T23:00:28;100119.97;;;3.19;100.00
40940;BME280;26666;50.156;7.700;2023-03-14T23:05:30;100113.97;;;3.17;100.00
40940;BME280;26666;50.156;7.700;2023-03-14T23:10:31;100125.38;;;3.16;100.00
40940;BME280;26666;50.156;7.700;2023-03-14T23:15:33;100129.63;;;3.17;100.00
40940;BME280;26666;50.156;7.700;2023-03-14T23:20:34;100133.03;;;3.19;100.00
40940;BME280;26666;50.156;7.700;2023-03-14T23:25:36;100149.09;;;3.27;100.00
40940;BME280;26666;50.156;7.700;2023-03-14T23:30:53;100149.69;;;3.16;100.00
40940;BME280;26666;50.156;7.700;2023-03-14T23:35:55;100154.69;;;3.05;100.00
40940;BME280;26666;50.156;7.700;2023-03-14T23:40:57;100156.47;;;3.05;100.00
40940;BME280;26666;50.156;7.700;2023-03-14T23:45:59;100167.53;;;2.94;100.00
40940;BME280;26666;50.156;7.700;2023-03-14T23:51:01;100175.38;;;2.94;100.00
40940;BME280;26666;50.156;7.700;2023-03-14T23:56:03;100174.69;;;2.90;100.00
